Taycheedah, Wisconsin
Current Conditions -  °F | °C
As of 6:53 PM on Wednesday 22 Oct 2014 (Local Time) from KFLD Reporting Station
Clear Clear  
Wind Chill: 41°   Ceiling: Unl
Heat Index: 46°   Visibility: 10mi
Dew Point: 38°   Wind: 10mph
Humidity: 73%   Direction: 140°SE
Pressure: 30.25"   Gusts: NA
Location:  43.7436°N, 88.3886°W
Report Text: KFLD 222353Z AUTO 14009KT 10SM CLR 08/03 A3025 RMK AO2 SLP251 T00780033 10139 20072 55006
Loading
Personal Weather Stations






























Interactive Weather Map
Tropical Storm Tracking
New forecast layout! Learn more

10-Day Weather Forecast

Advertisements
Track Severe Weather on mobile